sensor_id;sensor_type;location;lat;lon;timestamp;P1;durP1;ratioP1;P2;durP2;ratioP2
42478;SDS011;28110;47.080;9.476;2022-09-17T00:01:02;4.63;;;2.10;;
42478;SDS011;28110;47.080;9.476;2022-09-17T00:03:29;3.33;;;2.33;;
42478;SDS011;28110;47.080;9.476;2022-09-17T00:06:02;2.78;;;1.40;;
42478;SDS011;28110;47.080;9.476;2022-09-17T00:08:29;2.13;;;1.53;;
42478;SDS011;28110;47.080;9.476;2022-09-17T00:10:56;1.92;;;1.20;;
42478;SDS011;28110;47.080;9.476;2022-09-17T00:13:21;1.70;;;1.30;;
42478;SDS011;28110;47.080;9.476;2022-09-17T00:15:47;2.58;;;1.40;;
42478;SDS011;28110;47.080;9.476;2022-09-17T00:18:13;3.60;;;1.60;;
42478;SDS011;28110;47.080;9.476;2022-09-17T00:20:40;1.30;;;1.13;;
42478;SDS011;28110;47.080;9.476;2022-09-17T00:23:07;2.67;;;1.10;;
42478;SDS011;28110;47.080;9.476;2022-09-17T00:25:36;2.60;;;1.02;;
42478;SDS011;28110;47.080;9.476;2022-09-17T00:28:04;1.80;;;1.20;;
42478;SDS011;28110;47.080;9.476;2022-09-17T00:30:30;3.03;;;1.00;;
42478;SDS011;28110;47.080;9.476;2022-09-17T00:32:56;1.65;;;1.05;;
42478;SDS011;28110;47.080;9.476;2022-09-17T00:35:25;4.78;;;1.48;;
42478;SDS011;28110;47.080;9.476;2022-09-17T00:37:51;2.43;;;1.13;;
42478;SDS011;28110;47.080;9.476;2022-09-17T00:40:17;1.50;;;0.82;;
42478;SDS011;28110;47.080;9.476;2022-09-17T00:42:43;1.88;;;1.00;;
42478;SDS011;28110;47.080;9.476;2022-09-17T00:45:09;1.70;;;0.97;;
42478;SDS011;28110;47.080;9.476;2022-09-17T00:47:40;1.15;;;0.93;;
42478;SDS011;28110;47.080;9.476;2022-09-17T00:50:14;3.17;;;0.80;;
42478;SDS011;28110;47.080;9.476;2022-09-17T00:53:02;1.40;;;0.90;;
42478;SDS011;28110;47.080;9.476;2022-09-17T00:55:38;1.10;;;0.83;;
42478;SDS011;28110;47.080;9.476;2022-09-17T00:58:10;1.02;;;0.93;;
42478;SDS011;28110;47.080;9.476;2022-09-17T01:00:39;1.00;;;0.70;;
42478;SDS011;28110;47.080;9.476;2022-09-17T01:03:05;1.85;;;0.60;;
42478;SDS011;28110;47.080;9.476;2022-09-17T01:05:38;0.65;;;0.60;;
42478;SDS011;28110;47.080;9.476;2022-09-17T01:08:27;1.13;;;0.80;;
42478;SDS011;28110;47.080;9.476;2022-09-17T01:14:04;1.95;;;0.60;;
42478;SDS011;28110;47.080;9.476;2022-09-17T01:25:18;2.65;;;0.80;;
42478;SDS011;28110;47.080;9.476;2022-09-17T01:37:06;1.45;;;0.60;;
42478;SDS011;28110;47.080;9.476;2022-09-17T01:42:23;2.13;;;0.85;;
42478;SDS011;28110;47.080;9.476;2022-09-17T01:47:36;1.35;;;0.93;;
42478;SDS011;28110;47.080;9.476;2022-09-17T01:50:15;1.80;;;0.70;;
42478;SDS011;28110;47.080;9.476;2022-09-17T01:52:55;2.47;;;0.93;;
42478;SDS011;28110;47.080;9.476;2022-09-17T01:55:23;1.63;;;0.80;;
42478;SDS011;28110;47.080;9.476;2022-09-17T01:57:55;1.10;;;0.70;;
42478;SDS011;28110;47.080;9.476;2022-09-17T02:00:26;1.85;;;0.90;;
42478;SDS011;28110;47.080;9.476;2022-09-17T02:03:01;0.80;;;0.70;;
42478;SDS011;28110;47.080;9.476;2022-09-17T02:05:39;2.58;;;0.82;;
42478;SDS011;28110;47.080;9.476;2022-09-17T02:08:09;1.08;;;0.88;;
42478;SDS011;28110;47.080;9.476;2022-09-17T02:10:47;1.80;;;0.95;;
42478;SDS011;28110;47.080;9.476;2022-09-17T02:13:23;1.20;;;0.70;;
42478;SDS011;28110;47.080;9.476;2022-09-17T02:16:11;1.23;;;0.80;;
42478;SDS011;28110;47.080;9.476;2022-09-17T02:21:38;0.82;;;0.80;;
42478;SDS011;28110;47.080;9.476;2022-09-17T02:24:22;3.10;;;0.80;;
42478;SDS011;28110;47.080;9.476;2022-09-17T02:26:57;1.65;;;0.95;;
42478;SDS011;28110;47.080;9.476;2022-09-17T02:29:44;1.33;;;0.80;;
42478;SDS011;28110;47.080;9.476;2022-09-17T02:32:10;1.42;;;0.70;;
42478;SDS011;28110;47.080;9.476;2022-09-17T02:34:37;0.93;;;0.70;;
42478;SDS011;28110;47.080;9.476;2022-09-17T02:37:03;2.10;;;0.70;;
42478;SDS011;28110;47.080;9.476;2022-09-17T02:39:30;0.60;;;0.50;;
42478;SDS011;28110;47.080;9.476;2022-09-17T02:47:22;0.73;;;0.50;;
42478;SDS011;28110;47.080;9.476;2022-09-17T02:50:02;0.98;;;0.45;;
42478;SDS011;28110;47.080;9.476;2022-09-17T02:58:39;0.50;;;0.50;;
42478;SDS011;28110;47.080;9.476;2022-09-17T03:00:50;0.70;;;0.40;;
42478;SDS011;28110;47.080;9.476;2022-09-17T03:06:00;0.57;;;0.47;;
42478;SDS011;28110;47.080;9.476;2022-09-17T03:08:28;1.40;;;0.40;;
42478;SDS011;28110;47.080;9.476;2022-09-17T03:10:56;1.15;;;0.50;;
42478;SDS011;28110;47.080;9.476;2022-09-17T03:13:22;0.77;;;0.40;;
42478;SDS011;28110;47.080;9.476;2022-09-17T03:15:47;3.03;;;0.50;;
42478;SDS011;28110;47.080;9.476;2022-09-17T03:18:13;2.20;;;0.60;;
42478;SDS011;28110;47.080;9.476;2022-09-17T03:20:39;1.88;;;0.60;;
42478;SDS011;28110;47.080;9.476;2022-09-17T03:23:04;0.67;;;0.50;;
42478;SDS011;28110;47.080;9.476;2022-09-17T03:25:30;1.48;;;0.60;;
42478;SDS011;28110;47.080;9.476;2022-09-17T03:27:56;0.80;;;0.70;;
42478;SDS011;28110;47.080;9.476;2022-09-17T03:30:21;1.65;;;0.57;;
42478;SDS011;28110;47.080;9.476;2022-09-17T03:32:47;0.90;;;0.60;;
42478;SDS011;28110;47.080;9.476;2022-09-17T03:35:12;0.77;;;0.50;;
42478;SDS011;28110;47.080;9.476;2022-09-17T03:37:38;1.10;;;0.63;;
42478;SDS011;28110;47.080;9.476;2022-09-17T03:40:04;2.47;;;0.63;;
42478;SDS011;28110;47.080;9.476;2022-09-17T03:42:30;0.75;;;0.70;;
42478;SDS011;28110;47.080;9.476;2022-09-17T03:44:56;0.70;;;0.50;;
42478;SDS011;28110;47.080;9.476;2022-09-17T03:47:21;2.40;;;0.63;;
42478;SDS011;28110;47.080;9.476;2022-09-17T03:49:47;0.80;;;0.60;;
42478;SDS011;28110;47.080;9.476;2022-09-17T03:52:12;0.87;;;0.57;;
42478;SDS011;28110;47.080;9.476;2022-09-17T03:54:38;1.30;;;0.52;;
42478;SDS011;28110;47.080;9.476;2022-09-17T03:57:03;3.30;;;0.90;;
42478;SDS011;28110;47.080;9.476;2022-09-17T03:59:29;0.80;;;0.60;;
42478;SDS011;28110;47.080;9.476;2022-09-17T04:01:55;0.65;;;0.65;;
42478;SDS011;28110;47.080;9.476;2022-09-17T04:04:20;2.50;;;0.50;;
42478;SDS011;28110;47.080;9.476;2022-09-17T04:06:46;0.87;;;0.60;;
42478;SDS011;28110;47.080;9.476;2022-09-17T04:09:11;2.17;;;0.60;;
42478;SDS011;28110;47.080;9.476;2022-09-17T04:11:37;0.83;;;0.43;;
42478;SDS011;28110;47.080;9.476;2022-09-17T04:14:02;2.47;;;0.80;;
42478;SDS011;28110;47.080;9.476;2022-09-17T04:16:28;1.35;;;0.40;;
42478;SDS011;28110;47.080;9.476;2022-09-17T04:18:54;2.07;;;0.60;;
42478;SDS011;28110;47.080;9.476;2022-09-17T04:21:19;1.00;;;0.60;;
42478;SDS011;28110;47.080;9.476;2022-09-17T04:23:45;1.02;;;0.50;;
42478;SDS011;28110;47.080;9.476;2022-09-17T04:26:10;0.50;;;0.50;;
42478;SDS011;28110;47.080;9.476;2022-09-17T04:28:36;0.45;;;0.43;;
42478;SDS011;28110;47.080;9.476;2022-09-17T04:31:01;0.80;;;0.40;;
42478;SDS011;28110;47.080;9.476;2022-09-17T04:33:27;1.53;;;0.57;;
42478;SDS011;28110;47.080;9.476;2022-09-17T04:35:53;0.47;;;0.40;;
42478;SDS011;28110;47.080;9.476;2022-09-17T04:38:18;0.80;;;0.50;;
42478;SDS011;28110;47.080;9.476;2022-09-17T04:40:45;0.90;;;0.50;;
42478;SDS011;28110;47.080;9.476;2022-09-17T04:43:10;1.37;;;0.63;;
42478;SDS011;28110;47.080;9.476;2022-09-17T04:45:36;1.45;;;0.68;;
42478;SDS011;28110;47.080;9.476;2022-09-17T04:48:02;1.07;;;0.40;;
42478;SDS011;28110;47.080;9.476;2022-09-17T04:50:28;0.40;;;0.30;;
42478;SDS011;28110;47.080;9.476;2022-09-17T04:52:54;0.88;;;0.75;;
42478;SDS011;28110;47.080;9.476;2022-09-17T04:55:19;0.40;;;0.30;;
42478;SDS011;28110;47.080;9.476;2022-09-17T04:57:46;0.80;;;0.40;;
42478;SDS011;28110;47.080;9.476;2022-09-17T05:00:12;1.80;;;0.30;;
42478;SDS011;28110;47.080;9.476;2022-09-17T05:02:38;1.55;;;0.40;;
42478;SDS011;28110;47.080;9.476;2022-09-17T05:05:04;0.87;;;0.63;;
42478;SDS011;28110;47.080;9.476;2022-09-17T05:07:29;0.32;;;0.32;;
42478;SDS011;28110;47.080;9.476;2022-09-17T05:09:55;1.97;;;0.70;;
42478;SDS011;28110;47.080;9.476;2022-09-17T05:12:20;0.40;;;0.40;;
42478;SDS011;28110;47.080;9.476;2022-09-17T05:14:46;0.70;;;0.68;;
42478;SDS011;28110;47.080;9.476;2022-09-17T05:17:11;0.57;;;0.40;;
42478;SDS011;28110;47.080;9.476;2022-09-17T05:19:37;3.80;;;0.47;;
42478;SDS011;28110;47.080;9.476;2022-09-17T05:22:02;1.85;;;0.70;;
42478;SDS011;28110;47.080;9.476;2022-09-17T05:24:28;1.33;;;1.00;;
42478;SDS011;28110;47.080;9.476;2022-09-17T05:26:54;2.40;;;0.80;;
42478;SDS011;28110;47.080;9.476;2022-09-17T05:29:19;0.80;;;0.60;;
42478;SDS011;28110;47.080;9.476;2022-09-17T05:31:45;0.67;;;0.40;;
42478;SDS011;28110;47.080;9.476;2022-09-17T05:34:11;1.35;;;0.50;;
42478;SDS011;28110;47.080;9.476;2022-09-17T05:36:36;1.23;;;0.50;;
42478;SDS011;28110;47.080;9.476;2022-09-17T05:39:02;0.65;;;0.50;;
42478;SDS011;28110;47.080;9.476;2022-09-17T05:41:27;4.20;;;0.70;;
42478;SDS011;28110;47.080;9.476;2022-09-17T05:43:53;1.80;;;0.67;;
42478;SDS011;28110;47.080;9.476;2022-09-17T05:46:19;2.20;;;0.50;;
42478;SDS011;28110;47.080;9.476;2022-09-17T05:48:44;3.13;;;0.50;;
42478;SDS011;28110;47.080;9.476;2022-09-17T05:51:10;1.38;;;0.40;;
42478;SDS011;28110;47.080;9.476;2022-09-17T05:53:35;0.53;;;0.47;;
42478;SDS011;28110;47.080;9.476;2022-09-17T05:56:01;3.92;;;0.60;;
42478;SDS011;28110;47.080;9.476;2022-09-17T05:58:27;1.20;;;0.50;;
42478;SDS011;28110;47.080;9.476;2022-09-17T06:00:53;1.63;;;1.13;;
42478;SDS011;28110;47.080;9.476;2022-09-17T06:03:19;2.95;;;1.35;;
42478;SDS011;28110;47.080;9.476;2022-09-17T06:05:53;18.67;;;1.87;;
42478;SDS011;28110;47.080;9.476;2022-09-17T06:08:20;2.42;;;0.75;;
42478;SDS011;28110;47.080;9.476;2022-09-17T06:10:46;0.93;;;0.80;;
42478;SDS011;28110;47.080;9.476;2022-09-17T06:13:12;2.13;;;0.50;;
42478;SDS011;28110;47.080;9.476;2022-09-17T06:15:37;0.88;;;0.40;;
42478;SDS011;28110;47.080;9.476;2022-09-17T06:18:03;0.40;;;0.40;;
42478;SDS011;28110;47.080;9.476;2022-09-17T06:20:29;1.23;;;0.50;;
42478;SDS011;28110;47.080;9.476;2022-09-17T06:22:57;0.80;;;0.50;;
42478;SDS011;28110;47.080;9.476;2022-09-17T06:25:24;0.70;;;0.40;;
42478;SDS011;28110;47.080;9.476;2022-09-17T06:27:50;0.60;;;0.50;;
42478;SDS011;28110;47.080;9.476;2022-09-17T06:30:15;2.10;;;0.52;;
42478;SDS011;28110;47.080;9.476;2022-09-17T06:32:41;1.57;;;0.50;;
42478;SDS011;28110;47.080;9.476;2022-09-17T06:35:07;1.17;;;0.60;;
42478;SDS011;28110;47.080;9.476;2022-09-17T06:37:33;1.60;;;0.60;;
42478;SDS011;28110;47.080;9.476;2022-09-17T06:40:00;5.53;;;0.80;;
42478;SDS011;28110;47.080;9.476;2022-09-17T06:42:26;2.33;;;0.80;;
42478;SDS011;28110;47.080;9.476;2022-09-17T06:44:52;1.27;;;0.80;;
42478;SDS011;28110;47.080;9.476;2022-09-17T06:47:18;1.23;;;0.70;;
42478;SDS011;28110;47.080;9.476;2022-09-17T06:49:44;3.72;;;0.73;;
42478;SDS011;28110;47.080;9.476;2022-09-17T06:52:10;1.25;;;0.65;;
42478;SDS011;28110;47.080;9.476;2022-09-17T06:54:35;2.50;;;0.60;;
42478;SDS011;28110;47.080;9.476;2022-09-17T06:57:01;0.70;;;0.70;;
42478;SDS011;28110;47.080;9.476;2022-09-17T06:59:27;2.03;;;0.70;;
42478;SDS011;28110;47.080;9.476;2022-09-17T07:01:52;1.07;;;0.70;;
42478;SDS011;28110;47.080;9.476;2022-09-17T07:04:18;1.08;;;0.63;;
42478;SDS011;28110;47.080;9.476;2022-09-17T07:06:43;0.87;;;0.70;;
42478;SDS011;28110;47.080;9.476;2022-09-17T07:09:09;1.50;;;0.93;;
42478;SDS011;28110;47.080;9.476;2022-09-17T07:11:36;1.77;;;0.93;;
42478;SDS011;28110;47.080;9.476;2022-09-17T07:14:02;3.03;;;0.90;;
42478;SDS011;28110;47.080;9.476;2022-09-17T07:16:28;2.22;;;0.70;;
42478;SDS011;28110;47.080;9.476;2022-09-17T07:18:56;1.42;;;0.85;;
42478;SDS011;28110;47.080;9.476;2022-09-17T07:21:21;0.90;;;0.70;;
42478;SDS011;28110;47.080;9.476;2022-09-17T07:23:47;1.83;;;0.90;;
42478;SDS011;28110;47.080;9.476;2022-09-17T07:26:14;2.47;;;1.20;;
42478;SDS011;28110;47.080;9.476;2022-09-17T07:28:41;1.20;;;1.00;;
42478;SDS011;28110;47.080;9.476;2022-09-17T07:31:08;1.35;;;0.82;;
42478;SDS011;28110;47.080;9.476;2022-09-17T07:33:34;3.30;;;0.60;;
42478;SDS011;28110;47.080;9.476;2022-09-17T07:36:02;3.65;;;0.75;;
42478;SDS011;28110;47.080;9.476;2022-09-17T07:38:29;0.90;;;0.70;;
42478;SDS011;28110;47.080;9.476;2022-09-17T07:43:25;7.57;;;1.13;;
42478;SDS011;28110;47.080;9.476;2022-09-17T07:45:52;2.80;;;0.90;;
42478;SDS011;28110;47.080;9.476;2022-09-17T07:48:18;1.35;;;0.80;;
42478;SDS011;28110;47.080;9.476;2022-09-17T07:50:45;1.92;;;1.00;;
42478;SDS011;28110;47.080;9.476;2022-09-17T07:53:11;1.27;;;0.70;;
42478;SDS011;28110;47.080;9.476;2022-09-17T07:55:37;1.20;;;0.80;;
42478;SDS011;28110;47.080;9.476;2022-09-17T07:58:02;2.80;;;0.75;;
42478;SDS011;28110;47.080;9.476;2022-09-17T08:00:28;1.03;;;0.90;;
42478;SDS011;28110;47.080;9.476;2022-09-17T08:02:54;3.63;;;0.90;;
42478;SDS011;28110;47.080;9.476;2022-09-17T08:05:20;2.05;;;0.98;;
42478;SDS011;28110;47.080;9.476;2022-09-17T08:07:53;2.70;;;0.98;;
42478;SDS011;28110;47.080;9.476;2022-09-17T08:10:20;2.85;;;0.90;;
42478;SDS011;28110;47.080;9.476;2022-09-17T08:12:47;2.88;;;1.00;;
42478;SDS011;28110;47.080;9.476;2022-09-17T08:15:14;2.78;;;1.08;;
42478;SDS011;28110;47.080;9.476;2022-09-17T08:17:43;2.50;;;1.10;;
42478;SDS011;28110;47.080;9.476;2022-09-17T08:20:09;1.35;;;1.05;;
42478;SDS011;28110;47.080;9.476;2022-09-17T08:22:35;2.08;;;1.00;;
42478;SDS011;28110;47.080;9.476;2022-09-17T08:25:01;3.03;;;1.40;;
42478;SDS011;28110;47.080;9.476;2022-09-17T08:27:28;1.40;;;1.13;;
42478;SDS011;28110;47.080;9.476;2022-09-17T08:29:55;2.10;;;1.42;;
42478;SDS011;28110;47.080;9.476;2022-09-17T08:32:20;1.30;;;1.00;;
42478;SDS011;28110;47.080;9.476;2022-09-17T08:34:46;1.92;;;1.20;;
42478;SDS011;28110;47.080;9.476;2022-09-17T08:37:11;3.30;;;1.60;;
42478;SDS011;28110;47.080;9.476;2022-09-17T08:39:37;2.60;;;1.53;;
42478;SDS011;28110;47.080;9.476;2022-09-17T08:44:39;1.80;;;1.00;;
42478;SDS011;28110;47.080;9.476;2022-09-17T08:47:40;2.05;;;1.00;;
42478;SDS011;28110;47.080;9.476;2022-09-17T08:50:12;1.33;;;0.90;;
42478;SDS011;28110;47.080;9.476;2022-09-17T08:53:05;5.50;;;1.27;;
42478;SDS011;28110;47.080;9.476;2022-09-17T08:56:01;2.25;;;1.10;;
42478;SDS011;28110;47.080;9.476;2022-09-17T08:58:41;2.37;;;1.00;;
42478;SDS011;28110;47.080;9.476;2022-09-17T09:07:12;2.72;;;0.70;;
42478;SDS011;28110;47.080;9.476;2022-09-17T09:09:45;1.80;;;1.08;;
42478;SDS011;28110;47.080;9.476;2022-09-17T09:12:21;1.10;;;0.73;;
42478;SDS011;28110;47.080;9.476;2022-09-17T09:17:27;1.30;;;0.68;;
42478;SDS011;28110;47.080;9.476;2022-09-17T09:19:59;1.38;;;0.70;;
42478;SDS011;28110;47.080;9.476;2022-09-17T09:22:32;1.73;;;1.20;;
42478;SDS011;28110;47.080;9.476;2022-09-17T09:30:25;2.28;;;0.98;;
42478;SDS011;28110;47.080;9.476;2022-09-17T09:33:13;2.07;;;0.60;;
42478;SDS011;28110;47.080;9.476;2022-09-17T09:35:42;2.60;;;0.50;;
42478;SDS011;28110;47.080;9.476;2022-09-17T09:40:57;1.40;;;0.52;;
42478;SDS011;28110;47.080;9.476;2022-09-17T09:46:20;0.80;;;0.50;;
42478;SDS011;28110;47.080;9.476;2022-09-17T09:49:18;0.50;;;0.50;;
42478;SDS011;28110;47.080;9.476;2022-09-17T10:00:38;1.07;;;0.70;;
42478;SDS011;28110;47.080;9.476;2022-09-17T10:03:25;0.55;;;0.50;;
42478;SDS011;28110;47.080;9.476;2022-09-17T10:06:02;1.10;;;0.60;;
42478;SDS011;28110;47.080;9.476;2022-09-17T10:08:30;2.75;;;0.77;;
42478;SDS011;28110;47.080;9.476;2022-09-17T10:11:00;0.80;;;0.70;;
42478;SDS011;28110;47.080;9.476;2022-09-17T10:13:31;1.73;;;0.70;;
42478;SDS011;28110;47.080;9.476;2022-09-17T10:16:20;2.05;;;0.80;;
42478;SDS011;28110;47.080;9.476;2022-09-17T10:18:49;0.80;;;0.60;;
42478;SDS011;28110;47.080;9.476;2022-09-17T10:24:24;1.23;;;0.70;;
42478;SDS011;28110;47.080;9.476;2022-09-17T10:27:05;2.63;;;0.77;;
42478;SDS011;28110;47.080;9.476;2022-09-17T10:29:36;2.40;;;1.10;;
42478;SDS011;28110;47.080;9.476;2022-09-17T10:32:14;2.10;;;0.70;;
42478;SDS011;28110;47.080;9.476;2022-09-17T10:34:42;0.57;;;0.55;;
42478;SDS011;28110;47.080;9.476;2022-09-17T10:37:49;0.90;;;0.77;;
42478;SDS011;28110;47.080;9.476;2022-09-17T10:40:23;0.70;;;0.47;;
42478;SDS011;28110;47.080;9.476;2022-09-17T10:45:43;0.95;;;0.75;;
42478;SDS011;28110;47.080;9.476;2022-09-17T10:48:18;1.30;;;0.70;;
42478;SDS011;28110;47.080;9.476;2022-09-17T10:50:49;1.05;;;0.50;;
42478;SDS011;28110;47.080;9.476;2022-09-17T10:53:16;0.73;;;0.30;;
42478;SDS011;28110;47.080;9.476;2022-09-17T10:58:40;3.20;;;0.50;;
42478;SDS011;28110;47.080;9.476;2022-09-17T11:07:24;1.10;;;0.70;;
42478;SDS011;28110;47.080;9.476;2022-09-17T11:10:25;2.35;;;0.60;;
42478;SDS011;28110;47.080;9.476;2022-09-17T11:18:15;1.35;;;0.40;;
42478;SDS011;28110;47.080;9.476;2022-09-17T11:21:12;0.87;;;0.43;;
42478;SDS011;28110;47.080;9.476;2022-09-17T11:32:27;1.85;;;0.52;;
42478;SDS011;28110;47.080;9.476;2022-09-17T11:37:39;0.68;;;0.52;;
42478;SDS011;28110;47.080;9.476;2022-09-17T11:40:15;0.50;;;0.40;;
42478;SDS011;28110;47.080;9.476;2022-09-17T11:43:19;0.70;;;0.60;;
42478;SDS011;28110;47.080;9.476;2022-09-17T11:51:21;0.70;;;0.30;;
42478;SDS011;28110;47.080;9.476;2022-09-17T11:54:02;0.30;;;0.30;;
42478;SDS011;28110;47.080;9.476;2022-09-17T11:56:42;0.30;;;0.30;;
42478;SDS011;28110;47.080;9.476;2022-09-17T12:02:10;0.10;;;0.10;;
42478;SDS011;28110;47.080;9.476;2022-09-17T12:15:35;1.20;;;0.70;;
42478;SDS011;28110;47.080;9.476;2022-09-17T12:21:17;0.93;;;0.88;;
42478;SDS011;28110;47.080;9.476;2022-09-17T12:24:00;0.30;;;0.30;;
42478;SDS011;28110;47.080;9.476;2022-09-17T12:26:48;1.00;;;0.50;;
42478;SDS011;28110;47.080;9.476;2022-09-17T12:29:35;0.70;;;0.47;;
42478;SDS011;28110;47.080;9.476;2022-09-17T12:37:44;1.42;;;0.40;;
42478;SDS011;28110;47.080;9.476;2022-09-17T12:43:00;0.97;;;0.40;;
42478;SDS011;28110;47.080;9.476;2022-09-17T12:51:09;1.17;;;0.30;;
42478;SDS011;28110;47.080;9.476;2022-09-17T12:54:00;0.60;;;0.20;;
42478;SDS011;28110;47.080;9.476;2022-09-17T12:59:21;0.47;;;0.15;;
42478;SDS011;28110;47.080;9.476;2022-09-17T13:05:16;0.47;;;0.20;;
42478;SDS011;28110;47.080;9.476;2022-09-17T13:18:41;2.08;;;0.40;;
42478;SDS011;28110;47.080;9.476;2022-09-17T13:24:16;0.30;;;0.30;;
42478;SDS011;28110;47.080;9.476;2022-09-17T13:26:43;0.28;;;0.28;;
42478;SDS011;28110;47.080;9.476;2022-09-17T13:29:10;0.30;;;0.30;;
42478;SDS011;28110;47.080;9.476;2022-09-17T13:34:03;0.80;;;0.70;;
42478;SDS011;28110;47.080;9.476;2022-09-17T13:37:02;0.73;;;0.40;;
42478;SDS011;28110;47.080;9.476;2022-09-17T13:42:20;0.98;;;0.32;;
42478;SDS011;28110;47.080;9.476;2022-09-17T13:45:02;0.30;;;0.30;;
42478;SDS011;28110;47.080;9.476;2022-09-17T13:47:34;0.30;;;0.30;;
42478;SDS011;28110;47.080;9.476;2022-09-17T13:50:03;0.28;;;0.22;;
42478;SDS011;28110;47.080;9.476;2022-09-17T13:55:29;0.70;;;0.35;;
42478;SDS011;28110;47.080;9.476;2022-09-17T13:58:23;0.38;;;0.20;;
42478;SDS011;28110;47.080;9.476;2022-09-17T14:00:52;1.83;;;0.32;;
42478;SDS011;28110;47.080;9.476;2022-09-17T14:19:42;0.52;;;0.30;;
42478;SDS011;28110;47.080;9.476;2022-09-17T14:30:09;0.30;;;0.30;;
42478;SDS011;28110;47.080;9.476;2022-09-17T14:32:36;0.30;;;0.20;;
42478;SDS011;28110;47.080;9.476;2022-09-17T14:35:13;0.60;;;0.32;;
42478;SDS011;28110;47.080;9.476;2022-09-17T14:37:59;0.40;;;0.40;;
42478;SDS011;28110;47.080;9.476;2022-09-17T14:40:29;4.03;;;1.10;;
42478;SDS011;28110;47.080;9.476;2022-09-17T14:42:58;3.70;;;1.40;;
42478;SDS011;28110;47.080;9.476;2022-09-17T14:45:28;4.03;;;0.57;;
42478;SDS011;28110;47.080;9.476;2022-09-17T15:01:58;3.33;;;0.77;;
42478;SDS011;28110;47.080;9.476;2022-09-17T15:04:25;3.50;;;0.80;;
42478;SDS011;28110;47.080;9.476;2022-09-17T15:06:52;1.70;;;0.70;;
42478;SDS011;28110;47.080;9.476;2022-09-17T15:09:30;1.77;;;0.65;;
42478;SDS011;28110;47.080;9.476;2022-09-17T15:11:57;1.50;;;0.53;;
42478;SDS011;28110;47.080;9.476;2022-09-17T15:14:31;1.20;;;0.80;;
42478;SDS011;28110;47.080;9.476;2022-09-17T15:17:00;3.63;;;0.77;;
42478;SDS011;28110;47.080;9.476;2022-09-17T15:19:38;1.00;;;0.80;;
42478;SDS011;28110;47.080;9.476;2022-09-17T15:22:12;1.13;;;0.85;;
42478;SDS011;28110;47.080;9.476;2022-09-17T15:29:37;0.70;;;0.45;;
42478;SDS011;28110;47.080;9.476;2022-09-17T15:32:08;1.70;;;0.40;;
42478;SDS011;28110;47.080;9.476;2022-09-17T15:34:36;1.17;;;0.50;;
42478;SDS011;28110;47.080;9.476;2022-09-17T15:37:16;0.57;;;0.40;;
42478;SDS011;28110;47.080;9.476;2022-09-17T15:39:46;0.65;;;0.45;;
42478;SDS011;28110;47.080;9.476;2022-09-17T15:42:26;1.55;;;0.40;;
42478;SDS011;28110;47.080;9.476;2022-09-17T15:45:15;0.80;;;0.30;;
42478;SDS011;28110;47.080;9.476;2022-09-17T15:47:56;0.90;;;0.60;;
42478;SDS011;28110;47.080;9.476;2022-09-17T15:53:25;1.65;;;0.60;;
42478;SDS011;28110;47.080;9.476;2022-09-17T16:08:46;2.30;;;0.90;;
42478;SDS011;28110;47.080;9.476;2022-09-17T16:11:16;1.40;;;1.30;;
42478;SDS011;28110;47.080;9.476;2022-09-17T16:13:46;4.50;;;1.23;;
42478;SDS011;28110;47.080;9.476;2022-09-17T16:16:19;0.65;;;0.57;;
42478;SDS011;28110;47.080;9.476;2022-09-17T16:18:47;0.65;;;0.50;;
42478;SDS011;28110;47.080;9.476;2022-09-17T16:21:13;2.55;;;0.75;;
42478;SDS011;28110;47.080;9.476;2022-09-17T16:23:40;0.68;;;0.50;;
42478;SDS011;28110;47.080;9.476;2022-09-17T16:26:06;1.02;;;0.60;;
42478;SDS011;28110;47.080;9.476;2022-09-17T16:28:36;1.63;;;0.80;;
42478;SDS011;28110;47.080;9.476;2022-09-17T16:31:03;2.65;;;0.70;;
42478;SDS011;28110;47.080;9.476;2022-09-17T16:33:30;0.82;;;0.43;;
42478;SDS011;28110;47.080;9.476;2022-09-17T16:35:56;0.60;;;0.50;;
42478;SDS011;28110;47.080;9.476;2022-09-17T16:38:23;1.85;;;0.47;;
42478;SDS011;28110;47.080;9.476;2022-09-17T16:40:49;4.38;;;1.90;;
42478;SDS011;28110;47.080;9.476;2022-09-17T16:43:16;2.03;;;0.70;;
42478;SDS011;28110;47.080;9.476;2022-09-17T16:45:42;2.17;;;0.30;;
42478;SDS011;28110;47.080;9.476;2022-09-17T16:48:21;2.05;;;0.98;;
42478;SDS011;28110;47.080;9.476;2022-09-17T16:50:46;6.97;;;3.03;;
42478;SDS011;28110;47.080;9.476;2022-09-17T16:53:12;2.63;;;1.33;;
42478;SDS011;28110;47.080;9.476;2022-09-17T16:55:38;1.07;;;0.80;;
42478;SDS011;28110;47.080;9.476;2022-09-17T16:58:03;2.80;;;1.27;;
42478;SDS011;28110;47.080;9.476;2022-09-17T17:00:29;3.67;;;1.00;;
42478;SDS011;28110;47.080;9.476;2022-09-17T17:02:55;2.30;;;1.20;;
42478;SDS011;28110;47.080;9.476;2022-09-17T17:05:22;2.08;;;0.82;;
42478;SDS011;28110;47.080;9.476;2022-09-17T17:07:49;1.30;;;0.75;;
42478;SDS011;28110;47.080;9.476;2022-09-17T17:10:15;0.80;;;0.70;;
42478;SDS011;28110;47.080;9.476;2022-09-17T17:12:40;0.77;;;0.50;;
42478;SDS011;28110;47.080;9.476;2022-09-17T17:15:06;0.70;;;0.70;;
42478;SDS011;28110;47.080;9.476;2022-09-17T17:17:33;4.33;;;1.10;;
42478;SDS011;28110;47.080;9.476;2022-09-17T17:20:00;7.05;;;3.10;;
42478;SDS011;28110;47.080;9.476;2022-09-17T17:22:33;3.90;;;1.95;;
42478;SDS011;28110;47.080;9.476;2022-09-17T17:25:01;3.85;;;1.10;;
42478;SDS011;28110;47.080;9.476;2022-09-17T17:27:27;2.10;;;1.05;;
42478;SDS011;28110;47.080;9.476;2022-09-17T17:29:53;5.47;;;2.30;;
42478;SDS011;28110;47.080;9.476;2022-09-17T17:32:18;2.60;;;1.10;;
42478;SDS011;28110;47.080;9.476;2022-09-17T17:34:44;1.40;;;0.90;;
42478;SDS011;28110;47.080;9.476;2022-09-17T17:37:09;2.38;;;1.08;;
42478;SDS011;28110;47.080;9.476;2022-09-17T17:39:38;1.45;;;0.98;;
42478;SDS011;28110;47.080;9.476;2022-09-17T17:42:03;1.52;;;0.70;;
42478;SDS011;28110;47.080;9.476;2022-09-17T17:44:29;18.67;;;9.90;;
42478;SDS011;28110;47.080;9.476;2022-09-17T17:46:55;9.55;;;5.05;;
42478;SDS011;28110;47.080;9.476;2022-09-17T17:49:20;4.07;;;1.97;;
42478;SDS011;28110;47.080;9.476;2022-09-17T17:51:46;4.87;;;2.10;;
42478;SDS011;28110;47.080;9.476;2022-09-17T17:54:12;1.98;;;1.30;;
42478;SDS011;28110;47.080;9.476;2022-09-17T17:56:38;4.28;;;2.13;;
42478;SDS011;28110;47.080;9.476;2022-09-17T17:59:04;1.83;;;1.30;;
42478;SDS011;28110;47.080;9.476;2022-09-17T18:01:29;23.13;;;9.83;;
42478;SDS011;28110;47.080;9.476;2022-09-17T18:03:59;30.13;;;12.82;;
42478;SDS011;28110;47.080;9.476;2022-09-17T18:06:26;41.63;;;17.15;;
42478;SDS011;28110;47.080;9.476;2022-09-17T18:08:53;24.45;;;15.43;;
42478;SDS011;28110;47.080;9.476;2022-09-17T18:11:19;7.07;;;4.72;;
42478;SDS011;28110;47.080;9.476;2022-09-17T18:13:45;3.30;;;1.87;;
42478;SDS011;28110;47.080;9.476;2022-09-17T18:16:14;3.22;;;1.10;;
42478;SDS011;28110;47.080;9.476;2022-09-17T18:18:40;7.45;;;2.95;;
42478;SDS011;28110;47.080;9.476;2022-09-17T18:21:08;15.07;;;5.80;;
42478;SDS011;28110;47.080;9.476;2022-09-17T18:23:37;11.35;;;4.80;;
42478;SDS011;28110;47.080;9.476;2022-09-17T18:26:04;5.78;;;2.97;;
42478;SDS011;28110;47.080;9.476;2022-09-17T18:28:33;2.63;;;0.80;;
42478;SDS011;28110;47.080;9.476;2022-09-17T18:31:03;2.97;;;1.10;;
42478;SDS011;28110;47.080;9.476;2022-09-17T18:33:30;1.40;;;1.10;;
42478;SDS011;28110;47.080;9.476;2022-09-17T18:35:58;4.05;;;1.70;;
42478;SDS011;28110;47.080;9.476;2022-09-17T18:38:25;3.58;;;1.25;;
42478;SDS011;28110;47.080;9.476;2022-09-17T18:40:51;1.95;;;1.00;;
42478;SDS011;28110;47.080;9.476;2022-09-17T18:43:17;2.53;;;0.90;;
42478;SDS011;28110;47.080;9.476;2022-09-17T18:45:43;1.67;;;0.93;;
42478;SDS011;28110;47.080;9.476;2022-09-17T18:48:20;2.25;;;1.00;;
42478;SDS011;28110;47.080;9.476;2022-09-17T18:51:05;1.50;;;0.70;;
42478;SDS011;28110;47.080;9.476;2022-09-17T18:53:33;1.95;;;0.70;;
42478;SDS011;28110;47.080;9.476;2022-09-17T18:56:10;1.25;;;0.70;;